Time;durP1;ratioP1;P1;durP2;ratioP2;P2;SDS_P1;SDS_P2;PMS_P1;PMS_P2;Temp;Humidity;BMP_temperature;BMP_pressure;BME280_temperature;BME280_humidity;BME280_pressure;Samples;Min_cycle;Max_cycle;Signal;HPM_P1;HPM_P2
2023/03/06 00:01:40;;;;;;;7.45;5.90;;;0.60;99.90;;;;;;4999000;28;20188;-58
2023/03/06 00:04:07;;;;;;;7.97;6.22;;;0.50;99.90;;;;;;4999857;28;20050;-58
2023/03/06 00:06:32;;;;;;;6.38;5.53;;;0.60;99.90;;;;;;5000222;28;20623;-57
2023/03/06 00:08:58;;;;;;;8.32;5.40;;;0.50;99.90;;;;;;4999058;28;20033;-54
2023/03/06 00:11:23;;;;;;;8.02;5.50;;;0.50;99.90;;;;;;5000042;28;20018;-58
2023/03/06 00:13:49;;;;;;;6.38;5.28;;;0.60;99.90;;;;;;4999136;28;20053;-60
2023/03/06 00:16:14;;;;;;;5.85;5.00;;;0.50;99.90;;;;;;4999797;28;20041;-58
2023/03/06 00:18:42;;;;;;;5.75;4.70;;;0.50;99.90;;;;;;4999533;28;20052;-59
2023/03/06 00:21:08;;;;;;;6.70;4.93;;;0.50;99.90;;;;;;4998984;28;20461;-59
2023/03/06 00:23:35;;;;;;;5.78;4.13;;;0.50;99.90;;;;;;5000088;28;20030;-56
2023/03/06 00:26:00;;;;;;;7.50;4.45;;;0.50;99.90;;;;;;4999926;28;20018;-58
2023/03/06 00:28:29;;;;;;;5.65;4.47;;;0.50;99.90;;;;;;4998740;28;20396;-60
2023/03/06 00:30:55;;;;;;;7.32;4.80;;;0.50;99.90;;;;;;4999418;28;20054;-58
2023/03/06 00:33:20;;;;;;;8.25;5.57;;;0.50;99.90;;;;;;4997894;28;20064;-58
2023/03/06 00:35:46;;;;;;;8.80;5.30;;;0.50;99.90;;;;;;4997057;28;20061;-58
2023/03/06 00:38:12;;;;;;;7.70;5.18;;;0.50;99.90;;;;;;4999142;28;20030;-58
2023/03/06 00:40:37;;;;;;;7.45;5.43;;;0.50;99.90;;;;;;4998385;28;20090;-56
2023/03/06 00:43:03;;;;;;;7.63;6.25;;;0.50;99.90;;;;;;5000632;28;20029;-58
2023/03/06 00:45:29;;;;;;;8.63;6.22;;;0.50;99.90;;;;;;4999051;28;20033;-61
2023/03/06 00:47:54;;;;;;;10.57;6.22;;;0.50;99.90;;;;;;4997662;28;20061;-58
2023/03/06 00:50:20;;;;;;;10.50;6.60;;;0.50;99.90;;;;;;4999859;28;20027;-61
2023/03/06 00:52:45;;;;;;;11.00;7.45;;;0.50;99.90;;;;;;4997841;28;20080;-58
2023/03/06 00:55:11;;;;;;;9.73;7.07;;;0.50;99.90;;;;;;4998236;28;20035;-57
2023/03/06 00:57:36;;;;;;;10.90;7.53;;;0.50;99.90;;;;;;4997653;28;20140;-61
2023/03/06 01:00:03;;;;;;;11.57;6.95;;;0.50;99.90;;;;;;4999290;28;20030;-57
2023/03/06 01:02:29;;;;;;;11.93;7.75;;;0.50;99.90;;;;;;4998057;28;20083;-59
2023/03/06 01:04:55;;;;;;;11.65;7.88;;;0.50;99.90;;;;;;4998731;28;20030;-62
2023/03/06 01:07:20;;;;;;;13.63;8.32;;;0.50;99.90;;;;;;4998940;28;20026;-58
2023/03/06 01:09:46;;;;;;;13.75;8.40;;;0.50;99.90;;;;;;4993731;28;20080;-55
2023/03/06 01:12:11;;;;;;;14.23;8.98;;;0.50;99.90;;;;;;4998921;28;20030;-58
2023/03/06 01:14:37;;;;;;;14.43;9.00;;;0.50;99.90;;;;;;4997484;28;20496;-62
2023/03/06 01:17:02;;;;;;;14.07;9.68;;;0.50;99.90;;;;;;4999584;28;20030;-56
2023/03/06 01:19:28;;;;;;;14.63;8.77;;;0.50;99.90;;;;;;4996899;28;20105;-57
2023/03/06 01:21:53;;;;;;;13.82;9.38;;;0.50;99.90;;;;;;4999398;28;20026;-60
2023/03/06 01:24:19;;;;;;;16.20;10.65;;;0.50;99.90;;;;;;4998293;28;20026;-63
2023/03/06 01:26:44;;;;;;;13.80;9.35;;;0.50;99.90;;;;;;4998458;28;20049;-57
2023/03/06 01:29:10;;;;;;;12.75;9.25;;;0.50;99.90;;;;;;4998854;28;20026;-60
2023/03/06 01:31:36;;;;;;;14.00;9.88;;;0.50;99.90;;;;;;4998813;28;20061;-57
2023/03/06 01:34:02;;;;;;;13.32;9.23;;;0.50;99.90;;;;;;4998031;28;20026;-61
2023/03/06 01:36:27;;;;;;;13.23;9.25;;;0.50;99.90;;;;;;4997183;28;20030;-60
2023/03/06 01:38:53;;;;;;;11.75;9.15;;;0.50;99.90;;;;;;4999104;28;20062;-58
2023/03/06 01:41:20;;;;;;;12.23;9.07;;;0.50;99.90;;;;;;4993380;28;20033;-56
2023/03/06 01:43:46;;;;;;;13.68;8.38;;;0.50;99.90;;;;;;4998419;28;20022;-58
2023/03/06 01:46:27;;;;;;;12.57;8.68;;;0.50;99.90;;;;;;4998105;28;20030;-63
2023/03/06 01:49:22;;;;;;;12.05;7.55;;;0.50;99.90;;;;;;4998673;28;20088;-55
2023/03/06 01:51:59;;;;;;;14.15;8.90;;;0.50;99.90;;;;;;4989785;28;20038;-59
2023/03/06 01:54:33;;;;;;;13.60;8.15;;;0.50;99.90;;;;;;4996805;28;20058;-61
2023/03/06 01:57:06;;;;;;;13.63;9.00;;;0.50;99.90;;;;;;4997470;28;20084;-57
2023/03/06 01:59:34;;;;;;;14.48;9.65;;;0.50;99.90;;;;;;4994642;28;20022;-61
2023/03/06 02:02:01;;;;;;;15.95;9.93;;;0.50;99.90;;;;;;4996598;28;20040;-63
2023/03/06 02:04:28;;;;;;;17.10;11.45;;;0.50;99.90;;;;;;4995770;28;20328;-58
2023/03/06 02:06:54;;;;;;;18.13;10.30;;;0.50;99.90;;;;;;4998530;28;20348;-61
2023/03/06 02:09:21;;;;;;;13.32;9.88;;;0.50;99.90;;;;;;5011997;28;20582;-60
2023/03/06 02:11:46;;;;;;;18.92;11.65;;;0.50;99.90;;;;;;4997893;28;20095;-61
2023/03/06 02:14:15;;;;;;;17.23;11.93;;;0.50;99.90;;;;;;5002964;28;20030;-59
2023/03/06 02:16:41;;;;;;;17.42;10.98;;;0.50;99.90;;;;;;5003044;28;20029;-59
2023/03/06 02:19:30;;;;;;;17.55;11.35;;;0.50;99.90;;;;;;5003919;28;20475;-58
2023/03/06 02:21:55;;;;;;;24.13;13.10;;;0.50;99.90;;;;;;5003175;28;20026;-61
2023/03/06 02:24:50;;;;;;;18.45;12.02;;;0.50;99.90;;;;;;5004305;28;20044;-63
2023/03/06 02:27:17;;;;;;;16.65;11.65;;;0.50;99.90;;;;;;4985857;28;20070;-59
2023/03/06 02:29:45;;;;;;;20.63;13.00;;;0.50;99.90;;;;;;5002169;28;20780;-55
2023/03/06 02:32:10;;;;;;;21.75;12.02;;;0.50;99.90;;;;;;5004127;28;20049;-61
2023/03/06 02:34:36;;;;;;;23.83;12.45;;;0.40;99.90;;;;;;5002075;28;20026;-58
2023/03/06 02:37:07;;;;;;;18.30;12.52;;;0.50;99.90;;;;;;5004775;28;20036;-61
2023/03/06 02:39:38;;;;;;;22.33;11.88;;;0.50;99.90;;;;;;5001304;28;20062;-59
2023/03/06 02:42:04;;;;;;;18.63;11.95;;;0.40;99.90;;;;;;5001261;28;20038;-61
2023/03/06 02:44:31;;;;;;;19.00;11.73;;;0.40;99.90;;;;;;5003942;28;20026;-61
2023/03/06 02:46:57;;;;;;;25.48;14.40;;;0.40;99.90;;;;;;5003903;28;20030;-61
2023/03/06 02:49:22;;;;;;;18.77;11.82;;;0.40;99.90;;;;;;5000677;28;20030;-59
2023/03/06 02:51:49;;;;;;;20.88;12.48;;;0.40;99.90;;;;;;5001817;28;20030;-59
2023/03/06 02:54:17;;;;;;;19.58;12.50;;;0.40;99.90;;;;;;5002394;28;20026;-58
2023/03/06 02:56:46;;;;;;;23.08;12.27;;;0.40;99.90;;;;;;5003660;28;20029;-58
2023/03/06 02:59:11;;;;;;;19.42;12.27;;;0.40;99.90;;;;;;5003187;28;20045;-56
2023/03/06 03:01:37;;;;;;;22.73;13.57;;;0.40;99.90;;;;;;5004121;28;20034;-55
2023/03/06 03:04:03;;;;;;;20.90;12.23;;;0.30;99.90;;;;;;5004337;28;20026;-60
2023/03/06 03:06:28;;;;;;;22.23;12.52;;;0.30;99.90;;;;;;5003288;28;20042;-60
2023/03/06 03:08:54;;;;;;;20.05;12.43;;;0.30;99.90;;;;;;5003318;28;20014;-58
2023/03/06 03:11:19;;;;;;;19.60;12.82;;;0.30;99.90;;;;;;5003149;28;20400;-57
2023/03/06 03:13:45;;;;;;;20.77;13.13;;;0.30;99.90;;;;;;5003584;28;20413;-59
2023/03/06 03:16:14;;;;;;;19.20;12.23;;;0.20;99.90;;;;;;5003570;28;20026;-61
2023/03/06 03:18:40;;;;;;;20.98;12.32;;;0.20;99.90;;;;;;5002348;28;20480;-60
2023/03/06 03:21:10;;;;;;;19.85;11.20;;;0.10;99.90;;;;;;5004165;28;20497;-59
2023/03/06 03:23:36;;;;;;;20.15;11.73;;;0.10;99.90;;;;;;5000665;28;20026;-57
2023/03/06 03:26:07;;;;;;;18.83;11.63;;;0.10;99.90;;;;;;4999764;28;20072;-58
2023/03/06 03:28:32;;;;;;;19.63;12.30;;;0.10;99.90;;;;;;5001641;28;20112;-60
2023/03/06 03:31:02;;;;;;;16.70;10.77;;;0.00;99.90;;;;;;4999675;28;20114;-55
2023/03/06 03:33:28;;;;;;;21.88;12.73;;;0.00;99.90;;;;;;4999216;28;20038;-61
2023/03/06 03:36:01;;;;;;;17.92;10.73;;;0.00;99.90;;;;;;5001354;28;20102;-59
2023/03/06 03:38:27;;;;;;;17.38;10.70;;;-0.10;99.90;;;;;;5001192;28;20030;-61
2023/03/06 03:40:52;;;;;;;18.35;10.75;;;0.00;99.90;;;;;;5000608;28;20501;-59
2023/03/06 03:43:18;;;;;;;19.23;10.30;;;-0.10;99.90;;;;;;4999436;28;20440;-60
2023/03/06 03:45:44;;;;;;;17.90;11.10;;;-0.10;99.90;;;;;;5000631;28;20022;-59
2023/03/06 03:48:10;;;;;;;14.93;9.57;;;-0.20;99.90;;;;;;5000091;28;20060;-61
2023/03/06 03:50:35;;;;;;;14.30;9.77;;;-0.20;99.90;;;;;;4999729;28;20026;-61
2023/03/06 03:53:01;;;;;;;14.23;9.13;;;-0.20;99.90;;;;;;4999875;28;20041;-61
2023/03/06 03:55:27;;;;;;;21.10;13.48;;;-0.30;99.90;;;;;;4999366;28;20052;-59
2023/03/06 03:57:52;;;;;;;17.48;10.63;;;-0.30;99.90;;;;;;4998683;28;20034;-59
2023/03/06 04:00:18;;;;;;;19.35;10.75;;;-0.30;99.90;;;;;;5001815;28;20376;-62
2023/03/06 04:02:44;;;;;;;14.60;9.23;;;-0.30;99.90;;;;;;5000394;28;20034;-61
2023/03/06 04:05:13;;;;;;;19.35;11.05;;;-0.30;99.90;;;;;;4999897;28;20084;-63
2023/03/06 04:07:39;;;;;;;17.85;10.02;;;-0.40;99.90;;;;;;4997804;28;20041;-60
2023/03/06 04:10:07;;;;;;;17.40;10.85;;;-0.40;99.90;;;;;;4998010;28;20373;-62
2023/03/06 04:12:33;;;;;;;15.80;9.35;;;-0.40;99.90;;;;;;4998746;28;20037;-62
2023/03/06 04:14:59;;;;;;;17.30;9.15;;;-0.50;99.90;;;;;;5000690;28;20038;-62
2023/03/06 04:17:26;;;;;;;14.85;8.85;;;-0.50;99.90;;;;;;4998711;28;20034;-59
2023/03/06 04:19:52;;;;;;;17.13;9.93;;;-0.50;99.90;;;;;;4998862;28;20026;-60
2023/03/06 04:22:17;;;;;;;17.52;10.63;;;-0.50;99.90;;;;;;5000215;28;20092;-61
2023/03/06 04:24:43;;;;;;;14.63;9.48;;;-0.50;99.90;;;;;;5000156;28;20459;-61
2023/03/06 04:27:08;;;;;;;17.58;10.55;;;-0.50;99.90;;;;;;4999871;28;20404;-63
2023/03/06 04:29:34;;;;;;;15.40;9.15;;;-0.50;99.90;;;;;;4999305;28;20484;-59
2023/03/06 04:32:01;;;;;;;17.85;10.23;;;-0.50;99.90;;;;;;4999622;28;20033;-62
2023/03/06 04:34:26;;;;;;;18.17;10.52;;;-0.60;99.90;;;;;;4999380;28;20038;-60
2023/03/06 04:36:52;;;;;;;17.27;10.32;;;-0.60;99.90;;;;;;4997291;28;20042;-61
2023/03/06 04:39:17;;;;;;;17.25;9.75;;;-0.60;99.90;;;;;;4997150;28;20030;-62
2023/03/06 04:41:43;;;;;;;19.15;10.45;;;-0.70;99.90;;;;;;4997596;28;20410;-62
2023/03/06 04:44:08;;;;;;;14.80;9.73;;;-0.70;99.90;;;;;;4999598;28;20056;-61
2023/03/06 04:46:35;;;;;;;17.67;8.45;;;-0.60;99.90;;;;;;4996578;28;20026;-61
2023/03/06 04:49:00;;;;;;;13.95;8.65;;;-0.70;99.90;;;;;;4996916;28;20030;-63
2023/03/06 04:51:26;;;;;;;10.57;7.55;;;-0.70;99.90;;;;;;4997413;28;20030;-62
2023/03/06 04:53:52;;;;;;;12.68;8.38;;;-0.70;99.90;;;;;;4998866;28;20053;-60
2023/03/06 04:56:17;;;;;;;11.93;7.45;;;-0.70;99.90;;;;;;4999683;28;20034;-63
2023/03/06 04:58:43;;;;;;;11.73;7.07;;;-0.80;99.90;;;;;;4997558;28;20049;-60
2023/03/06 05:01:10;;;;;;;11.98;6.63;;;-0.80;99.90;;;;;;4999437;28;20030;-62
2023/03/06 05:03:36;;;;;;;8.98;6.38;;;-0.80;99.90;;;;;;4997046;28;20096;-60
2023/03/06 05:06:02;;;;;;;11.82;5.97;;;-0.80;99.90;;;;;;4999003;28;20421;-60
2023/03/06 05:08:27;;;;;;;11.93;6.80;;;-0.90;99.90;;;;;;4999282;28;20546;-62
2023/03/06 05:10:55;;;;;;;9.15;5.63;;;-0.90;99.90;;;;;;4997726;28;20469;-61
2023/03/06 05:13:21;;;;;;;10.90;6.32;;;-0.90;99.90;;;;;;4998449;28;20559;-59
2023/03/06 05:15:47;;;;;;;12.18;6.68;;;-0.90;99.90;;;;;;4998792;28;20026;-62
2023/03/06 05:18:12;;;;;;;8.07;6.07;;;-0.90;99.90;;;;;;4999196;28;20031;-63
2023/03/06 05:20:38;;;;;;;10.18;6.25;;;-0.90;99.90;;;;;;4998525;28;20516;-61
2023/03/06 05:23:03;;;;;;;11.10;6.22;;;-0.90;99.90;;;;;;4998136;28;20065;-61
2023/03/06 05:25:29;;;;;;;10.73;5.70;;;-1.00;99.90;;;;;;4998136;28;20054;-61
2023/03/06 05:27:54;;;;;;;8.70;5.72;;;-1.00;99.90;;;;;;4998525;28;20038;-62
2023/03/06 05:30:22;;;;;;;9.93;4.60;;;-1.00;99.90;;;;;;4997747;28;20032;-59
2023/03/06 05:32:47;;;;;;;9.00;5.45;;;-1.00;99.90;;;;;;4995354;28;20022;-60
2023/03/06 05:35:22;;;;;;;11.15;5.93;;;-1.00;99.90;;;;;;4997616;28;20072;-61
2023/03/06 05:37:48;;;;;;;6.22;4.60;;;-1.10;99.90;;;;;;4997645;28;20037;-61
2023/03/06 05:40:14;;;;;;;8.10;5.13;;;-1.10;99.90;;;;;;4999374;28;20035;-60
2023/03/06 05:42:40;;;;;;;9.48;4.70;;;-1.10;99.90;;;;;;4996410;28;20500;-60
2023/03/06 05:45:07;;;;;;;8.40;4.10;;;-1.10;99.90;;;;;;4995558;28;20069;-60
2023/03/06 05:47:32;;;;;;;8.93;4.63;;;-1.10;99.90;;;;;;4997225;28;20034;-60
2023/03/06 05:49:58;;;;;;;6.57;4.65;;;-1.10;99.90;;;;;;4996965;28;20029;-60
2023/03/06 05:52:24;;;;;;;11.63;5.20;;;-1.20;99.90;;;;;;4998600;28;20429;-57
2023/03/06 05:54:51;;;;;;;6.75;4.57;;;-1.10;99.90;;;;;;4996456;28;20084;-62
2023/03/06 05:57:19;;;;;;;13.02;5.88;;;-1.10;99.90;;;;;;4998476;28;20038;-60
2023/03/06 05:59:44;;;;;;;8.07;4.70;;;-1.10;99.90;;;;;;4998005;28;20808;-60
2023/03/06 06:02:10;;;;;;;6.05;4.78;;;-1.20;99.90;;;;;;4999255;28;20030;-61
2023/03/06 06:04:36;;;;;;;7.32;4.63;;;-1.20;99.90;;;;;;4997415;28;20036;-61
2023/03/06 06:07:02;;;;;;;7.68;5.07;;;-1.10;99.90;;;;;;4997695;28;20643;-60
2023/03/06 06:09:28;;;;;;;6.13;4.53;;;-1.10;99.90;;;;;;4996255;28;20027;-60
2023/03/06 06:11:56;;;;;;;6.60;4.68;;;-1.10;99.90;;;;;;4997890;28;20064;-61
2023/03/06 06:14:22;;;;;;;7.03;4.65;;;-1.10;99.90;;;;;;4997396;28;20036;-61
2023/03/06 06:16:48;;;;;;;8.75;4.90;;;-1.10;99.90;;;;;;4997521;28;20283;-60
2023/03/06 06:19:17;;;;;;;8.20;4.18;;;-1.10;99.90;;;;;;4996786;28;20034;-59
2023/03/06 06:21:45;;;;;;;10.48;4.95;;;-1.10;99.90;;;;;;4998138;28;20361;-61
2023/03/06 06:24:11;;;;;;;8.07;4.80;;;-1.00;99.90;;;;;;4996033;28;20057;-61
2023/03/06 06:26:37;;;;;;;18.30;5.10;;;-1.00;99.90;;;;;;4998296;28;20484;-58
2023/03/06 06:29:03;;;;;;;11.65;6.30;;;-1.00;99.90;;;;;;4997153;28;20124;-59
2023/03/06 06:31:29;;;;;;;10.90;5.63;;;-1.00;99.90;;;;;;4996868;28;20093;-60
2023/03/06 06:33:55;;;;;;;11.27;6.00;;;-0.90;99.90;;;;;;4996811;28;20030;-61
2023/03/06 06:36:21;;;;;;;10.63;6.30;;;-0.90;99.90;;;;;;4996832;28;20039;-61
2023/03/06 06:38:46;;;;;;;15.38;7.78;;;-0.80;99.90;;;;;;4997974;28;20038;-62
2023/03/06 06:41:12;;;;;;;12.85;6.25;;;-0.80;99.90;;;;;;4997311;28;20262;-60
2023/03/06 06:43:38;;;;;;;9.05;5.75;;;-0.80;99.90;;;;;;4995134;28;20109;-60
2023/03/06 06:46:04;;;;;;;14.43;7.47;;;-0.80;99.90;;;;;;4996894;28;20031;-61
2023/03/06 06:48:29;;;;;;;16.65;7.45;;;-0.70;99.90;;;;;;4996932;28;20034;-59
2023/03/06 06:50:57;;;;;;;10.52;5.95;;;-0.70;99.90;;;;;;4996711;28;20120;-58
2023/03/06 06:53:23;;;;;;;11.13;7.50;;;-0.60;99.90;;;;;;4999003;28;20030;-61
2023/03/06 06:55:49;;;;;;;12.38;7.40;;;-0.60;99.90;;;;;;4993912;28;20029;-60
2023/03/06 06:58:14;;;;;;;14.10;7.55;;;-0.60;99.90;;;;;;4997659;28;20089;-59
2023/03/06 07:00:40;;;;;;;11.20;6.75;;;-0.60;99.90;;;;;;4990909;28;20034;-59
2023/03/06 07:03:07;;;;;;;14.80;6.20;;;-0.60;99.90;;;;;;4994265;28;20116;-60
2023/03/06 07:05:33;;;;;;;12.77;7.70;;;-0.60;99.90;;;;;;4992382;28;20578;-60
2023/03/06 07:07:59;;;;;;;16.17;6.40;;;-0.50;99.90;;;;;;4991476;28;20038;-57
2023/03/06 07:10:24;;;;;;;13.25;6.53;;;-0.50;99.90;;;;;;4990613;28;20022;-59
2023/03/06 07:12:50;;;;;;;13.07;6.53;;;-0.50;99.90;;;;;;4997212;28;20507;-59
2023/03/06 07:15:16;;;;;;;10.63;6.07;;;-0.50;99.90;;;;;;5005335;28;20396;-60
2023/03/06 07:17:42;;;;;;;10.55;6.15;;;-0.50;99.90;;;;;;5001121;28;20555;-60
2023/03/06 07:20:09;;;;;;;9.63;6.03;;;-0.50;99.90;;;;;;5000953;28;20034;-60
2023/03/06 07:22:35;;;;;;;10.73;6.28;;;-0.40;99.90;;;;;;4992750;28;20060;-59
2023/03/06 07:25:02;;;;;;;9.15;5.75;;;-0.40;99.90;;;;;;5004669;28;20114;-59
2023/03/06 07:27:28;;;;;;;10.10;5.55;;;-0.30;99.90;;;;;;5001187;28;20030;-60
2023/03/06 07:29:53;;;;;;;10.40;5.88;;;-0.30;99.90;;;;;;5005283;28;20157;-61
2023/03/06 07:32:19;;;;;;;9.73;5.68;;;-0.30;99.90;;;;;;5001318;28;20022;-58
2023/03/06 07:34:46;;;;;;;9.63;5.55;;;-0.30;99.90;;;;;;5008064;28;20023;-61
2023/03/06 07:37:11;;;;;;;24.48;6.65;;;-0.30;99.90;;;;;;5000575;28;20034;-60
2023/03/06 07:39:37;;;;;;;9.90;5.95;;;-0.20;99.90;;;;;;5008829;28;20034;-60
2023/03/06 07:42:03;;;;;;;10.27;6.05;;;-0.20;99.90;;;;;;5001081;28;20077;-58
2023/03/06 07:44:28;;;;;;;10.05;6.40;;;-0.10;99.90;;;;;;5001337;28;20026;-62
2023/03/06 07:46:54;;;;;;;9.40;5.63;;;0.00;99.90;;;;;;5007154;28;20077;-59
2023/03/06 07:49:20;;;;;;;10.25;6.25;;;0.00;99.90;;;;;;5000289;28;20031;-58
2023/03/06 07:51:45;;;;;;;9.43;5.45;;;0.10;99.90;;;;;;5008524;28;20026;-58
2023/03/06 07:54:11;;;;;;;10.75;6.78;;;0.10;99.90;;;;;;5000649;28;20022;-59
2023/03/06 07:56:37;;;;;;;9.65;6.28;;;0.20;99.90;;;;;;5002245;28;20036;-58
2023/03/06 07:59:02;;;;;;;10.70;6.47;;;0.20;99.90;;;;;;5004758;28;20080;-58
2023/03/06 08:01:28;;;;;;;9.13;6.22;;;0.30;99.90;;;;;;4999576;28;20385;-60
2023/03/06 08:03:54;;;;;;;8.68;5.78;;;0.30;99.90;;;;;;5005500;28;20489;-59
2023/03/06 08:06:22;;;;;;;9.45;5.95;;;0.30;99.90;;;;;;5000308;28;20062;-62
2023/03/06 08:08:50;;;;;;;8.90;5.35;;;0.30;99.90;;;;;;5008115;28;20361;-60
2023/03/06 08:11:18;;;;;;;9.45;6.25;;;0.40;99.90;;;;;;4999800;28;20026;-60
2023/03/06 08:13:44;;;;;;;16.23;6.80;;;0.40;99.90;;;;;;5002850;28;20227;-62
2023/03/06 08:16:10;;;;;;;7.80;5.72;;;0.50;99.90;;;;;;5002349;28;20022;-62
2023/03/06 08:18:38;;;;;;;10.07;6.43;;;0.50;99.90;;;;;;5001547;28;20050;-61
2023/03/06 08:21:14;;;;;;;13.02;6.10;;;0.50;99.90;;;;;;5006566;28;20030;-63
2023/03/06 08:23:40;;;;;;;8.35;5.78;;;0.50;99.90;;;;;;5001081;28;20106;-61
2023/03/06 08:26:19;;;;;;;9.40;5.90;;;0.50;99.90;;;;;;5001896;28;20522;-59
2023/03/06 08:28:46;;;;;;;11.00;6.50;;;0.50;99.90;;;;;;5001845;28;20504;-62
2023/03/06 08:31:32;;;;;;;9.13;5.78;;;0.50;99.90;;;;;;5002003;28;20036;-59
2023/03/06 08:34:00;;;;;;;14.98;8.20;;;0.50;99.90;;;;;;5002104;28;20018;-59
2023/03/06 08:36:26;;;;;;;13.48;7.07;;;0.50;99.90;;;;;;5002473;28;20026;-61
2023/03/06 08:38:52;;;;;;;11.90;6.50;;;0.60;99.90;;;;;;5000871;28;20018;-61
2023/03/06 08:41:18;;;;;;;11.48;7.22;;;0.60;99.90;;;;;;5002036;28;20025;-61
2023/03/06 08:43:44;;;;;;;10.02;6.70;;;0.60;99.90;;;;;;5001476;28;20018;-59
2023/03/06 08:46:10;;;;;;;13.35;6.38;;;0.60;99.90;;;;;;5002732;28;20034;-60
2023/03/06 08:48:36;;;;;;;11.35;7.50;;;0.70;99.90;;;;;;5000718;28;20519;-59
2023/03/06 08:51:02;;;;;;;10.13;6.25;;;0.70;99.90;;;;;;5001652;28;20026;-57
2023/03/06 08:53:28;;;;;;;10.15;6.25;;;0.80;99.90;;;;;;5002707;28;20033;-58
2023/03/06 08:55:53;;;;;;;10.55;6.68;;;0.80;99.90;;;;;;5001039;28;20022;-61
2023/03/06 08:58:19;;;;;;;8.48;5.50;;;0.90;99.90;;;;;;5002676;28;20036;-60
2023/03/06 09:00:44;;;;;;;8.80;6.78;;;0.90;99.90;;;;;;5000728;28;20269;-56
2023/03/06 09:03:10;;;;;;;11.23;6.80;;;1.00;99.90;;;;;;5003395;28;20034;-56
2023/03/06 09:05:36;;;;;;;13.23;6.85;;;1.00;99.90;;;;;;5001706;28;20041;-59
2023/03/06 09:08:01;;;;;;;9.18;6.13;;;1.00;99.90;;;;;;5002669;28;20091;-60
2023/03/06 09:10:28;;;;;;;10.00;5.57;;;1.00;99.90;;;;;;5001949;28;20018;-62
2023/03/06 09:12:54;;;;;;;8.27;5.93;;;1.00;99.90;;;;;;5000835;28;20048;-61
2023/03/06 09:15:21;;;;;;;10.35;5.65;;;1.00;99.90;;;;;;5002431;28;20204;-62
2023/03/06 09:17:47;;;;;;;12.10;6.88;;;1.00;99.90;;;;;;5000224;28;20500;-58
2023/03/06 09:20:13;;;;;;;14.52;6.40;;;1.10;99.90;;;;;;5005266;28;20034;-60
2023/03/06 09:22:41;;;;;;;8.20;5.90;;;1.10;99.90;;;;;;4999766;28;20022;-57
2023/03/06 09:25:08;;;;;;;8.88;6.30;;;1.10;99.90;;;;;;4998897;28;20018;-61
2023/03/06 09:27:34;;;;;;;11.77;6.20;;;1.10;99.90;;;;;;5005322;28;20409;-60
2023/03/06 09:30:00;;;;;;;8.13;5.45;;;1.20;99.90;;;;;;4997854;28;20273;-55
2023/03/06 09:32:25;;;;;;;14.00;6.22;;;1.20;99.90;;;;;;5005108;28;20036;-59
2023/03/06 09:34:51;;;;;;;10.02;6.45;;;1.20;99.90;;;;;;4999199;28;20011;-54
2023/03/06 09:37:17;;;;;;;10.93;6.18;;;1.30;99.90;;;;;;4997263;28;20031;-58
2023/03/06 09:39:43;;;;;;;10.25;6.65;;;1.50;99.90;;;;;;5004131;28;20025;-56
2023/03/06 09:42:17;;;;;;;9.95;6.43;;;1.70;99.90;;;;;;4998793;28;20409;-59
2023/03/06 09:44:48;;;;;;;10.57;6.97;;;1.90;99.90;;;;;;5005004;28;20136;-59
2023/03/06 09:47:30;;;;;;;9.60;5.72;;;2.00;99.90;;;;;;4998378;28;20030;-60
2023/03/06 09:50:09;;;;;;;10.25;6.10;;;2.10;99.90;;;;;;4992065;28;20010;-55
2023/03/06 09:52:56;;;;;;;12.07;7.07;;;2.30;99.90;;;;;;4998066;28;20018;-57
2023/03/06 09:55:28;;;;;;;7.57;5.03;;;2.50;99.90;;;;;;4999518;28;20017;-55
2023/03/06 09:58:12;;;;;;;10.68;5.72;;;2.60;99.90;;;;;;4990355;28;20026;-56
2023/03/06 10:00:54;;;;;;;10.48;5.60;;;2.70;99.90;;;;;;5000577;28;20030;-52
2023/03/06 10:03:45;;;;;;;9.48;6.05;;;2.80;99.90;;;;;;5002448;28;20038;-53
2023/03/06 10:06:35;;;;;;;7.63;5.70;;;2.90;99.90;;;;;;4997914;28;20061;-58
2023/03/06 10:09:16;;;;;;;8.32;5.57;;;3.00;99.90;;;;;;4995149;28;20022;-58
2023/03/06 10:11:59;;;;;;;8.77;5.97;;;3.00;99.90;;;;;;5001096;28;20018;-56
2023/03/06 10:14:44;;;;;;;6.90;5.07;;;2.80;99.90;;;;;;4999011;28;20396;-58
2023/03/06 10:17:17;;;;;;;7.45;5.47;;;2.90;99.90;;;;;;4991933;28;20428;-58
2023/03/06 10:19:43;;;;;;;7.07;5.22;;;2.80;99.90;;;;;;5001831;28;20034;-58
2023/03/06 10:22:35;;;;;;;8.60;5.35;;;2.90;99.90;;;;;;5001782;28;20369;-61
2023/03/06 10:25:28;;;;;;;6.00;4.82;;;2.80;99.90;;;;;;4996489;28;20026;-57
2023/03/06 10:28:20;;;;;;;8.20;5.68;;;2.70;99.90;;;;;;4992513;28;20050;-58
2023/03/06 10:30:48;;;;;;;8.18;5.07;;;2.70;99.90;;;;;;4977177;28;20090;-57
2023/03/06 10:33:48;;;;;;;6.63;4.97;;;2.60;99.90;;;;;;5002972;28;20088;-59
2023/03/06 10:36:15;;;;;;;7.57;5.15;;;2.70;99.90;;;;;;4997564;28;20088;-56
2023/03/06 10:38:43;;;;;;;6.80;4.70;;;2.70;99.90;;;;;;5001267;28;20022;-62
2023/03/06 10:41:11;;;;;;;7.90;5.22;;;2.80;99.90;;;;;;5004934;28;20022;-57
2023/03/06 10:43:42;;;;;;;7.40;4.47;;;2.80;99.90;;;;;;5003394;28;20765;-58
2023/03/06 10:46:13;;;;;;;5.72;4.70;;;2.80;99.90;;;;;;5004955;28;20670;-56
2023/03/06 10:48:41;;;;;;;6.60;4.80;;;2.80;99.90;;;;;;5004163;28;21825;-57
2023/03/06 10:51:24;;;;;;;7.55;4.45;;;2.70;99.90;;;;;;5004800;28;20493;-60
2023/03/06 10:54:02;;;;;;;7.43;4.07;;;2.60;99.90;;;;;;4999510;28;20106;-59
2023/03/06 10:56:36;;;;;;;5.78;4.25;;;2.70;99.90;;;;;;5006863;28;20068;-56
2023/03/06 10:59:07;;;;;;;8.00;4.35;;;2.70;99.90;;;;;;5001176;28;20053;-60
2023/03/06 11:01:33;;;;;;;4.88;3.92;;;2.70;99.90;;;;;;5007891;28;20060;-56
2023/03/06 11:04:15;;;;;;;7.18;3.72;;;2.70;99.90;;;;;;5001378;28;20389;-60
2023/03/06 11:06:41;;;;;;;5.47;3.25;;;2.70;99.90;;;;;;5003333;28;20022;-58
2023/03/06 11:09:24;;;;;;;6.97;3.53;;;2.70;99.90;;;;;;5004797;28;20028;-58
2023/03/06 11:11:50;;;;;;;4.55;3.13;;;2.60;99.90;;;;;;4993099;28;20029;-60
2023/03/06 11:14:19;;;;;;;6.88;3.33;;;2.60;99.90;;;;;;5004908;28;20029;-60
2023/03/06 11:16:53;;;;;;;5.18;3.00;;;2.70;99.90;;;;;;5004103;28;20497;-60
2023/03/06 11:19:26;;;;;;;6.10;3.22;;;2.70;99.90;;;;;;4997635;28;20033;-58
2023/03/06 11:22:02;;;;;;;5.00;3.03;;;2.70;99.90;;;;;;4995212;28;20104;-57
2023/03/06 11:24:42;;;;;;;4.43;2.38;;;2.70;99.90;;;;;;5004137;28;20439;-59
2023/03/06 11:27:33;;;;;;;3.03;1.63;;;2.70;99.90;;;;;;4999901;28;20034;-59
2023/03/06 11:30:02;;;;;;;3.08;1.55;;;2.90;99.90;;;;;;4998115;28;20201;-59
2023/03/06 11:32:40;;;;;;;2.08;1.77;;;3.10;99.90;;;;;;5008432;28;20412;-61
2023/03/06 11:35:15;;;;;;;2.75;1.17;;;3.30;99.90;;;;;;5001058;28;20388;-60
2023/03/06 11:37:43;;;;;;;5.22;1.60;;;3.40;99.90;;;;;;5003035;28;20038;-57
2023/03/06 11:40:50;;;;;;;5.82;1.63;;;3.40;99.90;;;;;;5003981;28;20034;-58
2023/03/06 11:43:28;;;;;;;2.88;1.05;;;3.50;99.90;;;;;;4902881;29;20039;-59
2023/03/06 11:46:13;;;;;;;3.92;1.17;;;3.70;99.90;;;;;;4982571;28;20033;-61
2023/03/06 11:48:55;;;;;;;4.25;1.10;;;3.70;99.90;;;;;;5002045;28;20057;-60
2023/03/06 11:51:24;;;;;;;3.10;1.33;;;3.80;99.90;;;;;;5004431;28;20018;-57
2023/03/06 11:53:50;;;;;;;3.47;0.98;;;3.90;99.90;;;;;;4998371;28;20029;-61
2023/03/06 11:56:38;;;;;;;3.90;1.38;;;4.10;99.90;;;;;;5005373;28;20516;-61
2023/03/06 11:59:18;;;;;;;1.80;1.35;;;4.20;99.90;;;;;;4998999;28;20026;-60
2023/03/06 12:02:04;;;;;;;1.20;0.85;;;4.20;99.90;;;;;;5007366;28;20026;-61
2023/03/06 12:04:52;;;;;;;2.42;0.85;;;4.10;99.90;;;;;;4968679;28;20042;-59
2023/03/06 12:07:25;;;;;;;2.05;1.17;;;4.10;99.90;;;;;;5003724;28;20061;-60
2023/03/06 12:10:08;;;;;;;4.10;0.90;;;4.10;99.90;;;;;;4998050;28;20118;-60
2023/03/06 12:12:33;;;;;;;2.15;0.93;;;4.00;99.90;;;;;;5001511;28;20018;-56
2023/03/06 12:15:18;;;;;;;1.23;1.13;;;3.90;99.90;;;;;;5003812;28;20029;-60
2023/03/06 12:18:01;;;;;;;2.05;1.17;;;3.90;99.90;;;;;;5002343;28;20022;-62
2023/03/06 12:20:42;;;;;;;0.93;0.82;;;3.80;99.90;;;;;;5008181;28;20379;-58
2023/03/06 12:23:49;;;;;;;2.05;0.90;;;3.80;99.90;;;;;;5000292;28;20022;-59
2023/03/06 12:26:37;;;;;;;4.35;0.75;;;3.80;99.90;;;;;;4994311;28;20026;-55
2023/03/06 12:29:18;;;;;;;2.17;0.80;;;3.90;99.90;;;;;;4994828;28;20030;-60
2023/03/06 12:32:10;;;;;;;2.75;0.80;;;4.10;99.90;;;;;;5002697;28;20018;-60
2023/03/06 12:34:57;;;;;;;2.10;0.80;;;4.30;99.90;;;;;;5001772;28;20060;-61
2023/03/06 12:37:41;;;;;;;;;;;4.40;99.90;;;;;;4996565;28;20041;-58
2023/03/06 12:40:22;;;;;;;6.18;1.15;;;4.60;99.90;;;;;;4994823;28;19906;-57
2023/03/06 12:43:33;;;;;;;1.42;0.50;;;4.80;99.90;;;;;;5003173;28;20053;-62
2023/03/06 12:46:20;;;;;;;1.55;0.63;;;4.80;99.90;;;;;;4982959;28;20091;-56
2023/03/06 12:49:15;;;;;;;1.83;0.98;;;4.80;99.90;;;;;;5000937;28;20431;-60
2023/03/06 12:51:43;;;;;;;2.40;0.77;;;4.90;99.90;;;;;;5001366;28;20105;-57
2023/03/06 12:54:10;;;;;;;1.63;0.50;;;4.80;99.90;;;;;;4994116;28;20034;-59
2023/03/06 12:56:35;;;;;;;0.80;0.77;;;4.90;99.90;;;;;;5005042;28;20099;-57
2023/03/06 12:59:01;;;;;;;0.60;0.57;;;4.90;99.90;;;;;;4999251;28;20485;-60